Strang, Oklahoma
Current Conditions -  °F | °C
As of 8:55 PM on Friday 21 Nov 2014 (Local Time) from KGCM Reporting Station
Overcast Overcast  
Wind Chill: 54°   Ceiling: 1000
Heat Index: 54°   Visibility: 10mi
Dew Point: 50°   Wind: 12mph
Humidity: 88%   Direction: 170°S
Pressure: 30.12"   Gusts: 17mph
Location:  36.41°N, 95.13°W
Report Text: KGCM 220255Z AUTO 17010G15KT 10SM OVC010 12/10 A3012 RMK AO2
Loading
Personal Weather Stations






























Interactive Weather Map New forecast layout! Learn more

10-Day Weather Forecast

Advertisements
Track Severe Weather on mobile